.
WxDataArchive / Data Records for 2006-06-05
2006-06-04 June 2006 2006-06-06

Data Records for Monday, 05 June 2006

Time	Temp	Chill	HIndex	Humid	Dewpt	 Wind 	HiWind	WindDir	Rain 	Barom 
-----	----	-----	------	-----	-----	------	------	-------	-----	----- 
00:00	56.9	56.9	56.9	68	46.4	0	0	---	0.00	29.947 
00:05	56.6	56.6	56.6	68	46.2	0	2	158	0.00	29.947 
00:10	56.9	56.9	56.9	69	46.8	1	7	112	0.00	29.947 
00:15	57.3	57.3	57.3	67	46.4	0	1	112	0.00	29.955 
00:20	57.5	57.5	57.5	66	46.2	0	0	---	0.00	29.955 
00:25	57.3	57.3	57.3	68	46.8	0	1	112	0.00	29.955 
00:30	57.3	57.3	57.3	67	46.4	0	0	---	0.00	29.957 
00:35	57.2	57.2	57.2	67	46.3	0	0	---	0.00	29.957 
00:40	56.9	56.9	56.9	69	46.8	0	0	---	0.00	29.957 
00:45	56.7	56.7	56.7	68	46.3	0	0	---	0.00	29.960 
00:50	56.5	56.5	56.5	69	46.5	0	0	---	0.00	29.960 
00:55	56.3	56.3	56.3	70	46.6	0	0	---	0.00	29.960 
01:00	56.0	56.0	56.0	72	47.1	0	0	---	0.00	29.962 
01:05	55.7	55.7	55.7	72	46.8	0	0	---	0.00	29.962 
01:10	55.6	55.6	55.6	72	46.7	0	0	---	0.00	29.962 
01:15	55.3	55.3	55.3	73	46.8	0	0	---	0.00	29.961 
01:20	55.0	55.0	55.0	73	46.5	0	0	---	0.00	29.961 
01:25	54.8	54.8	54.8	75	47.0	0	0	---	0.00	29.961 
01:30	54.7	54.7	54.7	76	47.3	0	1	112	0.00	29.962 
01:35	54.8	54.8	54.8	76	47.4	0	1	112	0.00	29.962 
01:40	54.8	54.8	54.8	76	47.4	0	0	---	0.00	29.962 
01:45	54.7	54.7	54.7	76	47.3	0	1	112	0.00	29.963 
01:50	54.5	54.5	54.5	76	47.1	0	0	---	0.00	29.963 
01:55	54.4	54.4	54.4	77	47.3	0	0	---	0.00	29.963 
02:00	54.1	54.1	54.1	77	47.0	0	0	---	0.00	29.965 
02:05	53.9	53.9	53.9	78	47.2	0	0	---	0.00	29.965 
02:10	53.8	53.8	53.8	78	47.1	0	0	---	0.00	29.965 
02:15	53.6	53.6	53.6	79	47.2	0	0	---	0.00	29.969 
02:20	53.3	53.3	53.3	80	47.3	0	0	---	0.00	29.969 
02:25	53.2	53.2	53.2	80	47.2	0	0	---	0.00	29.969 
02:30	53.1	53.1	53.1	81	47.4	0	0	---	0.00	29.974 
02:35	52.9	52.9	52.9	81	47.2	0	0	---	0.00	29.974 
02:40	52.8	52.8	52.8	81	47.1	0	0	---	0.00	29.974 
02:45	52.8	52.8	52.8	82	47.5	0	0	---	0.00	29.970 
02:50	52.6	52.6	52.6	81	46.9	0	0	---	0.00	29.970 
02:55	52.5	52.5	52.5	82	47.2	0	0	---	0.00	29.970 
03:00	52.3	52.3	52.3	83	47.3	0	0	---	0.00	29.971 
03:05	52.3	52.3	52.3	83	47.3	0	0	---	0.00	29.971 
03:10	52.3	52.3	52.3	83	47.3	0	0	---	0.00	29.971 
03:15	52.2	52.2	52.2	83	47.2	0	0	---	0.00	29.970 
03:20	52.0	52.0	52.0	84	47.3	0	0	---	0.00	29.970 
03:25	51.9	51.9	51.9	84	47.2	0	0	---	0.00	29.970 
03:30	51.7	51.7	51.7	84	47.0	0	0	---	0.00	29.970 
03:35	51.6	51.6	51.6	84	46.9	0	0	---	0.00	29.970 
03:40	51.4	51.4	51.4	85	47.0	0	0	---	0.00	29.970 
03:45	51.3	51.3	51.3	85	46.9	0	0	---	0.00	29.970 
03:50	51.1	51.1	51.1	85	46.7	0	0	---	0.00	29.970 
03:55	51.0	51.0	51.0	86	47.0	0	0	---	0.00	29.970 
04:00	51.0	51.0	51.0	86	47.0	0	0	---	0.00	29.971 
04:05	50.8	50.8	50.8	86	46.8	0	0	---	0.00	29.971 
04:10	50.7	50.7	50.7	87	47.0	0	0	---	0.00	29.971 
04:15	50.5	50.5	50.5	87	46.8	0	0	---	0.00	29.972 
04:20	50.4	50.4	50.4	88	47.0	0	0	---	0.00	29.972 
04:25	50.4	50.4	50.4	88	47.0	0	0	---	0.00	29.972 
04:30	50.2	50.2	50.2	88	46.8	0	0	---	0.00	29.976 
04:35	50.2	50.2	50.2	89	47.1	0	0	---	0.00	29.976 
04:40	50.1	50.1	50.1	88	46.7	0	0	---	0.00	29.976 
04:45	49.9	49.9	49.9	89	46.8	0	0	---	0.00	29.977 
04:50	49.8	49.8	49.8	89	46.7	0	0	---	0.00	29.977 
04:55	49.8	49.8	49.8	90	47.0	0	0	---	0.00	29.977 
05:00	49.6	49.6	49.6	90	46.8	0	0	---	0.00	29.977 
05:05	49.5	49.5	49.5	90	46.7	0	0	---	0.00	29.977 
05:10	49.4	49.4	49.4	90	46.6	0	0	---	0.00	29.977 
05:15	49.4	49.4	49.4	90	46.6	0	0	---	0.00	29.977 
05:20	49.2	49.2	49.2	90	46.4	0	0	---	0.00	29.977 
05:25	49.2	49.2	49.2	91	46.7	0	0	---	0.00	29.977 
05:30	49.2	49.2	49.2	91	46.7	0	0	---	0.00	29.980 
05:35	49.1	49.1	49.1	91	46.6	0	0	---	0.00	29.980 
05:40	48.9	48.9	48.9	91	46.4	0	0	---	0.00	29.980 
05:45	48.9	48.9	48.9	91	46.4	0	0	---	0.00	29.977 
05:50	48.8	48.8	48.8	92	46.6	0	0	---	0.00	29.977 
05:55	48.8	48.8	48.8	92	46.6	0	0	---	0.00	29.977 
06:00	48.6	48.6	48.6	92	46.4	0	0	---	0.00	29.985 
06:05	48.6	48.6	48.6	92	46.4	0	0	---	0.00	29.985 
06:10	48.5	48.5	48.5	92	46.3	0	0	---	0.00	29.985 
06:15	48.5	48.5	48.5	92	46.3	0	0	---	0.00	29.991 
06:20	48.3	48.3	48.3	92	46.1	0	0	---	0.00	29.991 
06:25	48.2	48.2	48.2	92	46.0	0	0	---	0.00	29.991 
06:30	48.2	48.2	48.2	92	46.0	0	0	---	0.00	29.994 
06:35	48.2	48.2	48.2	92	46.0	0	0	---	0.00	29.994 
06:40	48.2	48.2	48.2	92	46.0	0	0	---	0.00	29.994 
06:45	48.3	48.3	48.3	92	46.1	0	0	---	0.00	29.994 
06:50	48.5	48.5	48.5	93	46.6	0	0	---	0.00	29.994 
06:55	48.6	48.6	48.6	93	46.7	0	0	---	0.00	29.994 
07:00	48.8	48.8	48.8	93	46.9	0	0	---	0.00	29.994 
07:05	49.1	49.1	49.1	93	47.2	0	0	---	0.00	29.994 
07:10	49.4	49.4	49.4	93	47.5	0	0	---	0.00	29.994 
07:15	49.6	49.6	49.6	94	47.9	0	0	---	0.00	30.002 
07:20	50.2	50.2	50.2	94	48.5	0	0	---	0.00	30.002 
07:25	51.0	51.0	51.0	94	49.3	0	0	---	0.00	30.002 
07:30	51.9	51.9	51.9	93	49.9	0	0	---	0.00	30.004 
07:35	52.8	52.8	52.8	92	50.5	0	0	---	0.00	30.004 
07:40	53.8	53.8	53.8	90	50.9	0	0	---	0.00	30.004 
07:45	54.8	54.8	54.8	87	51.0	0	1	112	0.00	30.002 
07:50	56.2	56.2	56.2	83	51.1	0	0	---	0.00	30.002 
07:55	57.5	57.5	57.5	79	51.0	0	0	---	0.00	30.002 
08:00	59.0	59.0	59.0	76	51.4	0	0	---	0.00	30.002 
08:05	61.0	61.0	61.0	69	50.8	0	1	112	0.00	30.002 
08:10	62.1	62.1	62.1	67	51.0	0	1	112	0.00	30.002 
08:15	62.7	62.7	62.7	68	52.0	0	1	112	0.00	30.003 
08:20	64.0	64.0	64.0	64	51.6	0	2	112	0.00	30.003 
08:25	65.6	65.6	65.6	65	53.5	0	1	112	0.00	30.003 
08:30	66.4	66.4	66.4	65	54.3	0	1	112	0.00	30.001 
08:35	67.1	67.1	67.1	60	52.7	0	1	112	0.00	30.001 
08:40	68.3	68.3	68.3	57	52.5	0	1	112	0.00	30.001 
08:45	68.9	68.9	68.9	58	53.5	0	1	112	0.00	30.005 
08:50	69.8	69.8	69.8	55	52.9	0	1	112	0.00	30.005 
08:55	70.6	70.6	70.6	49	50.5	0	2	112	0.00	30.005 
09:00	70.9	70.9	70.9	49	50.8	1	2	112	0.00	30.006 
09:05	70.6	70.6	70.6	46	48.8	1	3	202	0.00	30.006 
09:10	70.4	70.4	70.4	47	49.2	1	3	248	0.00	30.006 
09:15	70.8	70.8	70.8	43	47.2	1	3	248	0.00	30.014 
09:20	70.3	70.3	70.3	40	44.8	1	3	248	0.00	30.014 
09:25	70.9	70.9	70.9	44	47.9	1	3	135	0.00	30.014 
09:30	71.6	71.6	71.6	39	45.3	1	3	135	0.00	30.015 
09:35	72.1	72.1	72.1	42	47.7	1	4	112	0.00	30.015 
09:40	72.3	72.3	72.3	39	45.9	1	2	112	0.00	30.015 
09:45	72.3	72.3	72.3	44	49.2	1	3	112	0.00	30.015 
09:50	72.1	72.1	72.1	41	47.1	1	3	248	0.00	30.015 
09:55	72.5	72.5	72.5	38	45.4	1	3	292	0.00	30.015 
10:00	72.7	72.7	72.7	39	46.3	1	3	270	0.00	30.013 
10:05	72.8	72.8	72.8	39	46.4	1	3	270	0.00	30.013 
10:10	73.0	73.0	73.0	36	44.5	1	4	270	0.00	30.013 
10:15	72.8	72.8	72.8	39	46.4	1	4	248	0.00	30.015 
10:20	73.5	73.5	73.5	39	47.0	1	3	90	0.00	30.015 
10:25	74.0	74.0	74.0	41	48.8	1	2	90	0.00	30.015 
10:30	74.0	74.0	74.0	40	48.1	1	2	90	0.00	30.014 
10:35	74.6	74.6	74.6	39	48.0	0	2	90	0.00	30.014 
10:40	74.7	74.7	74.7	38	47.4	1	2	90	0.00	30.014 
10:45	74.9	74.9	74.9	35	45.4	1	4	248	0.00	30.014 
10:50	75.3	75.3	77.4	35	45.7	1	3	225	0.00	30.014 
10:55	75.4	75.4	77.3	33	44.3	0	2	225	0.00	30.014 
11:00	74.9	74.9	74.9	33	43.8	1	2	292	0.00	30.014 
11:05	75.3	75.3	77.1	31	42.6	0	2	292	0.00	30.014 
11:10	75.1	75.1	77.2	34	44.8	1	3	292	0.00	30.014 
11:15	75.3	75.3	77.2	33	44.2	1	3	292	0.00	30.017 
11:20	75.4	75.4	77.4	35	45.8	1	3	270	0.00	30.017 
11:25	75.6	75.6	77.4	34	45.2	1	2	270	0.00	30.017 
11:30	76.0	76.0	77.8	39	49.2	1	2	270	0.00	30.016 
11:35	76.0	76.0	77.5	33	44.8	0	2	270	0.00	30.016 
11:40	76.3	76.3	77.6	33	45.1	1	3	270	0.00	30.016 
11:45	76.3	76.3	77.4	30	42.6	0	2	270	0.00	30.012 
11:50	76.8	76.8	77.7	31	43.9	1	2	270	0.00	30.012 
11:55	77.0	77.0	77.6	29	42.3	2	4	112	0.00	30.012 
12:00	76.8	76.8	77.4	27	40.3	1	3	90	0.00	30.009 
12:05	77.0	77.0	78.0	36	48.0	1	3	90	0.00	30.009 
12:10	77.0	77.0	78.1	37	48.7	1	2	315	0.00	30.009 
12:15	76.8	76.8	77.8	33	45.5	1	2	338	0.00	30.012 
12:20	77.0	77.0	77.9	33	45.7	1	3	315	0.00	30.012 
12:25	77.2	77.2	78.1	36	48.2	1	3	45	0.00	30.012 
12:30	77.2	77.2	77.6	27	40.6	1	4	45	0.00	30.006 
12:35	77.4	77.4	77.7	28	41.7	0	1	90	0.00	30.006 
12:40	77.9	77.9	78.0	29	43.1	0	2	45	0.00	30.006 
12:45	78.3	78.3	78.4	32	46.0	1	3	0	0.00	30.001 
12:50	78.1	78.1	78.1	29	43.2	0	1	0	0.00	30.001 
12:55	78.3	78.3	78.5	34	47.6	1	2	338	0.00	30.001 
13:00	78.3	78.3	78.3	30	44.3	0	2	338	0.00	30.000 
13:05	77.9	77.9	77.9	27	41.2	0	2	338	0.00	30.000 
13:10	78.1	78.1	78.2	31	45.0	0	2	225	0.00	30.000 
13:15	77.7	77.7	77.6	25	39.1	1	2	225	0.00	30.000 
13:20	77.9	77.9	77.9	28	42.1	1	3	225	0.00	30.000 
13:25	77.9	77.9	77.9	27	41.2	1	3	112	0.00	30.000 
13:30	78.1	78.1	78.0	27	41.4	2	4	68	0.00	29.995 
13:35	78.6	78.6	78.6	33	47.1	1	3	112	0.00	29.995 
13:40	78.8	78.8	78.3	27	42.0	1	4	112	0.00	29.995 
13:45	78.6	78.6	78.4	30	44.6	1	3	90	0.00	29.991 
13:50	79.0	79.0	79.0	36	49.7	0	3	90	0.00	29.991 
13:55	78.6	78.6	78.3	28	42.7	0	2	90	0.00	29.991 
14:00	78.8	78.8	78.1	24	38.9	2	3	90	0.00	29.987 
14:05	78.8	78.8	78.6	31	45.6	1	4	112	0.00	29.987 
14:10	79.0	79.0	78.5	28	43.1	1	4	68	0.00	29.987 
14:15	79.2	79.2	78.6	28	43.3	1	4	0	0.00	29.988 
14:20	78.8	78.8	78.3	27	42.0	1	3	0	0.00	29.988 
14:25	79.2	79.2	78.5	27	42.3	2	5	90	0.00	29.988 
14:30	79.2	79.2	78.4	24	39.3	1	2	68	0.00	29.988 
14:35	79.6	79.6	78.7	26	41.7	1	3	68	0.00	29.988 
14:40	79.6	79.6	78.6	25	40.7	1	3	68	0.00	29.988 
14:45	79.6	79.6	78.6	24	39.6	1	3	68	0.00	29.986 
14:50	80.1	80.1	78.7	21	36.6	0	3	68	0.00	29.986 
14:55	80.9	80.9	79.4	24	40.7	0	1	68	0.00	29.986 
15:00	80.9	80.9	79.5	27	43.8	2	4	90	0.00	29.984 
15:05	80.1	80.1	78.9	24	40.0	2	4	90	0.00	29.984 
15:10	79.9	79.9	78.8	24	39.9	2	4	90	0.00	29.984 
15:15	79.8	79.8	78.9	27	42.8	2	5	90	0.00	29.981 
15:20	79.6	79.6	78.8	27	42.7	2	6	90	0.00	29.981 
15:25	79.9	79.9	79.1	29	44.8	1	3	90	0.00	29.981 
15:30	80.3	80.3	79.2	28	44.2	1	4	112	0.00	29.975 
15:35	80.1	80.1	79.0	26	42.1	2	4	90	0.00	29.975 
15:40	80.1	80.1	78.9	24	40.0	2	6	90	0.00	29.975 
15:45	80.1	80.1	78.9	25	41.1	1	4	90	0.00	29.972 
15:50	80.1	80.1	79.1	28	44.0	2	5	90	0.00	29.972 
15:55	79.9	79.9	78.9	27	42.9	1	4	68	0.00	29.972 
16:00	80.3	80.3	79.0	25	41.2	0	3	90	0.00	29.972 
16:05	80.7	80.7	79.4	26	42.6	1	4	90	0.00	29.972 
16:10	81.1	81.1	79.4	22	38.6	1	4	90	0.00	29.972 
16:15	80.7	80.7	79.1	21	37.1	1	4	90	0.00	29.971 
16:20	80.3	80.3	78.9	23	39.1	1	6	90	0.00	29.971 
16:25	80.1	80.1	78.8	23	38.9	1	3	90	0.00	29.971 
16:30	80.1	80.1	78.9	25	41.1	1	3	90	0.00	29.970 
16:35	80.5	80.5	79.2	25	41.4	0	2	90	0.00	29.970 
16:40	80.7	80.7	79.2	23	39.4	1	3	90	0.00	29.970 
16:45	80.5	80.5	79.2	25	41.4	1	2	315	0.00	29.965 
16:50	80.9	80.9	79.4	24	40.7	1	2	292	0.00	29.965 
16:55	80.7	80.7	79.2	23	39.4	0	2	315	0.00	29.965 
17:00	80.9	80.9	79.5	27	43.8	0	2	315	0.00	29.959 
17:05	80.9	80.9	79.6	28	44.7	1	3	315	0.00	29.959 
17:10	80.9	80.9	79.4	24	40.7	1	3	45	0.00	29.959 
17:15	80.7	80.7	79.3	25	41.6	1	3	315	0.00	29.956 
17:20	80.7	80.7	79.2	24	40.5	0	2	270	0.00	29.956 
17:25	80.7	80.7	79.1	22	38.3	1	2	270	0.00	29.956 
17:30	80.9	80.9	79.3	23	39.6	1	2	270	0.00	29.956 
17:35	80.9	80.9	79.2	22	38.5	1	2	270	0.00	29.956 
17:40	80.7	80.7	79.1	22	38.3	1	3	270	0.00	29.956 
17:45	80.9	80.9	79.2	22	38.5	1	3	270	0.00	29.954 
17:50	80.3	80.3	78.9	22	38.0	1	3	45	0.00	29.954 
17:55	79.8	79.8	78.6	23	38.7	0	2	45	0.00	29.954 
18:00	79.6	79.6	78.6	25	40.7	0	1	45	0.00	29.950 
18:05	79.4	79.4	78.5	25	40.5	0	2	45	0.00	29.950 
18:10	79.4	79.4	78.4	23	38.4	0	1	22	0.00	29.950 
18:15	79.4	79.4	78.5	24	39.4	0	2	22	0.00	29.944 
18:20	79.4	79.4	78.5	24	39.4	0	1	315	0.00	29.944 
18:25	79.2	79.2	78.4	25	40.3	0	1	315	0.00	29.944 
18:30	79.6	79.6	78.7	26	41.7	0	2	315	0.00	29.941 
18:35	79.4	79.4	78.5	25	40.5	0	1	315	0.00	29.941 
18:40	79.2	79.2	78.4	25	40.3	0	2	315	0.00	29.941 
18:45	79.0	79.0	78.4	26	41.2	0	1	315	0.00	29.940 
18:50	78.8	78.8	78.2	25	40.0	0	1	315	0.00	29.940 
18:55	78.5	78.5	77.9	23	37.6	0	2	315	0.00	29.940 
19:00	78.3	78.3	77.9	24	38.5	0	2	315	0.00	29.941 
19:05	78.1	78.1	77.7	23	37.3	1	3	112	0.00	29.941 
19:10	78.1	78.1	77.7	23	37.3	0	1	112	0.00	29.941 
19:15	77.9	77.9	77.7	25	39.2	0	2	112	0.00	29.933 
19:20	77.7	77.7	77.6	24	38.0	0	2	112	0.00	29.933 
19:25	77.7	77.7	77.6	24	38.0	0	2	112	0.00	29.933 
19:30	77.6	77.6	77.6	25	39.0	0	1	112	0.00	29.932 
19:35	77.4	77.4	77.4	24	37.8	0	1	112	0.00	29.932 
19:40	77.4	77.4	77.5	25	38.8	0	0	---	0.00	29.932 
19:45	77.2	77.2	77.5	26	39.6	0	1	112	0.00	29.929 
19:50	77.2	77.2	77.5	26	39.6	0	0	---	0.00	29.929 
19:55	77.0	77.0	77.3	25	38.5	0	0	---	0.00	29.929 
20:00	76.8	76.8	77.3	26	39.3	0	1	112	0.00	29.934 
20:05	76.5	76.5	77.3	28	41.0	0	0	---	0.00	29.934 
20:10	76.3	76.3	77.2	27	39.8	0	1	112	0.00	29.934 
20:15	76.1	76.1	77.1	27	39.7	0	0	---	0.00	29.924 
20:20	76.0	76.0	77.1	27	39.6	0	0	---	0.00	29.924 
20:25	75.6	75.6	77.1	29	41.1	0	0	---	0.00	29.924 
20:30	75.3	75.3	76.9	28	39.9	0	0	---	0.00	29.919 
20:35	74.9	74.9	74.9	30	41.4	0	0	---	0.00	29.919 
20:40	74.4	74.4	74.4	31	41.8	0	0	---	0.00	29.919 
20:45	74.0	74.0	74.0	32	42.3	0	0	---	0.00	29.917 
20:50	73.5	73.5	73.5	33	42.6	0	0	---	0.00	29.917 
20:55	72.8	72.8	72.8	35	43.5	0	0	---	0.00	29.917 
21:00	72.3	72.3	72.3	34	42.3	0	0	---	0.00	29.918 
21:05	71.6	71.6	71.6	37	43.9	0	0	---	0.00	29.918 
21:10	70.9	70.9	70.9	37	43.3	0	0	---	0.00	29.918 
21:15	70.3	70.3	70.3	37	42.8	0	0	---	0.00	29.922 
21:20	69.6	69.6	69.6	40	44.2	0	0	---	0.00	29.922 
21:25	69.1	69.1	69.1	43	45.7	0	0	---	0.00	29.922 
21:30	68.4	68.4	68.4	44	45.6	0	0	---	0.00	29.923 
21:35	67.9	67.9	67.9	45	45.8	0	0	---	0.00	29.923 
21:40	67.3	67.3	67.3	47	46.4	0	0	---	0.00	29.923 
21:45	66.8	66.8	66.8	49	47.0	0	0	---	0.00	29.928 
21:50	66.3	66.3	66.3	50	47.1	0	0	---	0.00	29.928 
21:55	65.8	65.8	65.8	51	47.2	0	0	---	0.00	29.928 
22:00	65.3	65.3	65.3	52	47.2	0	0	---	0.00	29.931 
22:05	64.8	64.8	64.8	54	47.8	0	0	---	0.00	29.931 
22:10	64.5	64.5	64.5	54	47.5	0	1	112	0.00	29.931 
22:15	64.2	64.2	64.2	55	47.7	0	0	---	0.00	29.935 
22:20	63.9	63.9	63.9	54	46.9	0	0	---	0.00	29.935 
22:25	63.4	63.4	63.4	51	45.0	0	0	---	0.00	29.935 
22:30	62.9	62.9	62.9	55	46.5	0	0	---	0.00	29.938 
22:35	62.7	62.7	62.7	57	47.2	0	0	---	0.00	29.938 
22:40	62.4	62.4	62.4	58	47.4	0	0	---	0.00	29.938 
22:45	62.3	62.3	62.3	58	47.3	0	0	---	0.00	29.941 
22:50	62.0	62.0	62.0	58	47.0	0	0	---	0.00	29.941 
22:55	61.6	61.6	61.6	58	46.7	0	0	---	0.00	29.941 
23:00	61.3	61.3	61.3	59	46.8	0	0	---	0.00	29.940 
23:05	61.2	61.2	61.2	60	47.2	0	0	---	0.00	29.940 
23:10	60.9	60.9	60.9	62	47.8	0	0	---	0.00	29.940 
23:15	60.7	60.7	60.7	62	47.6	0	0	---	0.00	29.938 
23:20	60.5	60.5	60.5	62	47.4	0	0	---	0.00	29.938 
23:25	60.2	60.2	60.2	63	47.6	0	0	---	0.00	29.938 
23:30	59.9	59.9	59.9	65	48.1	0	0	---	0.00	29.936 
23:35	59.8	59.8	59.8	65	48.0	0	0	---	0.00	29.936 
23:40	59.5	59.5	59.5	67	48.5	0	0	---	0.00	29.936 
23:45	59.3	59.3	59.3	68	48.7	0	0	---	0.00	29.937 
23:50	59.3	59.3	59.3	69	49.1	0	0	---	0.00	29.937 
23:55	59.2	59.2	59.2	69	49.0	0	0	---	0.00	29.937 

CoCoRaHS
IN-AL-39
A2 Web Hosting
Creative Commons License
GoDaddy
Look for:

loaded 2017-10-19 12:28:41 • last modified 2010-11-18 10:43:29
Privacy PolicyDisclaimer
• wx.awcolley.com is powered by PmWiki v.2002016 •
• all content (unless otherwise noted) © 2017 A W Colley